createdAt,value
2023-04-29T00:00:59.195Z,21.8
2023-04-29T00:02:15.319Z,21.8
2023-04-29T00:03:31.456Z,21.8
2023-04-29T00:04:47.595Z,21.8
2023-04-29T00:06:03.753Z,21.8
2023-04-29T00:07:19.869Z,21.8
2023-04-29T00:08:36.012Z,21.8
2023-04-29T00:09:52.149Z,21.8
2023-04-29T00:11:08.269Z,21.8
2023-04-29T00:12:24.425Z,21.8
2023-04-29T00:13:40.562Z,21.8
2023-04-29T00:14:56.694Z,21.8
2023-04-29T00:16:12.819Z,21.9
2023-04-29T00:17:28.955Z,21.9
2023-04-29T00:18:45.103Z,21.9
2023-04-29T00:20:01.244Z,21.9
2023-04-29T00:21:17.366Z,21.9
2023-04-29T00:22:33.494Z,21.9
2023-04-29T00:23:49.636Z,21.9
2023-04-29T00:25:05.780Z,21.9
2023-04-29T00:26:21.917Z,21.9
2023-04-29T00:27:38.057Z,21.9
2023-04-29T00:28:54.188Z,21.9
2023-04-29T00:30:10.325Z,21.9
2023-04-29T00:31:26.472Z,21.9
2023-04-29T00:32:42.598Z,21.9
2023-04-29T00:33:58.791Z,21.9
2023-04-29T00:35:14.030Z,21.9
2023-04-29T00:36:29.231Z,21.9
2023-04-29T00:37:45.363Z,21.9
2023-04-29T00:39:01.511Z,21.9
2023-04-29T00:40:17.650Z,21.9
2023-04-29T00:41:33.780Z,21.9
2023-04-29T00:42:49.925Z,21.9
2023-04-29T00:44:06.055Z,21.9
2023-04-29T00:45:22.193Z,21.9
2023-04-29T00:46:38.326Z,21.9
2023-04-29T00:47:54.477Z,21.9
2023-04-29T00:49:10.601Z,21.9
2023-04-29T00:50:26.729Z,21.9
2023-04-29T00:51:42.863Z,21.9
2023-04-29T00:52:59.002Z,21.9
2023-04-29T00:54:15.155Z,21.9
2023-04-29T00:55:31.285Z,21.9
2023-04-29T00:56:47.420Z,21.9
2023-04-29T00:58:03.543Z,21.9
2023-04-29T00:59:19.679Z,21.9
2023-04-29T01:00:35.839Z,21.9
2023-04-29T01:01:51.975Z,21.9
2023-04-29T01:03:08.109Z,21.9
2023-04-29T01:04:24.226Z,21.9
2023-04-29T01:05:40.363Z,21.9
2023-04-29T01:06:56.513Z,21.9
2023-04-29T01:08:12.698Z,21.9
2023-04-29T01:09:27.936Z,21.9
2023-04-29T01:11:59.296Z,21.9
2023-04-29T01:13:15.425Z,21.9
2023-04-29T01:14:31.562Z,22
2023-04-29T01:15:47.684Z,21.9
2023-04-29T01:17:03.838Z,21.9
2023-04-29T01:18:19.974Z,21.9
2023-04-29T01:19:36.101Z,21.9
2023-04-29T01:20:52.238Z,21.9
2023-04-29T01:22:08.374Z,21.9
2023-04-29T01:23:24.510Z,21.9
2023-04-29T01:24:40.645Z,22
2023-04-29T01:25:56.788Z,22
2023-04-29T01:27:12.913Z,22
2023-04-29T01:28:29.050Z,22
2023-04-29T01:29:45.199Z,22
2023-04-29T01:31:01.329Z,22
2023-04-29T01:32:17.464Z,22
2023-04-29T01:33:33.607Z,22
2023-04-29T01:34:49.732Z,22
2023-04-29T01:36:05.873Z,22
2023-04-29T01:37:22.015Z,22
2023-04-29T01:38:38.147Z,22
2023-04-29T01:39:54.288Z,22
2023-04-29T01:41:10.417Z,22
2023-04-29T01:42:26.620Z,22
2023-04-29T01:43:41.853Z,22
2023-04-29T01:44:58.056Z,22
2023-04-29T01:46:13.266Z,22
2023-04-29T01:47:29.387Z,22
2023-04-29T01:48:45.520Z,22
2023-04-29T01:50:01.655Z,22
2023-04-29T01:51:17.793Z,22
2023-04-29T01:52:33.936Z,22
2023-04-29T01:53:50.070Z,22
2023-04-29T01:55:06.196Z,22
2023-04-29T01:56:22.336Z,22
2023-04-29T01:57:38.476Z,22
2023-04-29T01:58:54.628Z,22
2023-04-29T02:00:10.758Z,22
2023-04-29T02:01:26.886Z,22
2023-04-29T02:02:43.029Z,22
2023-04-29T02:03:59.160Z,22
2023-04-29T02:05:15.291Z,22
2023-04-29T02:06:31.428Z,22
2023-04-29T02:07:47.566Z,22
2023-04-29T02:09:03.700Z,22
2023-04-29T02:10:19.824Z,22
2023-04-29T02:11:35.987Z,22
2023-04-29T02:12:52.120Z,22
2023-04-29T02:14:08.244Z,22
2023-04-29T02:15:24.383Z,22
2023-04-29T02:16:40.517Z,21.9
2023-04-29T02:17:56.725Z,21.9
2023-04-29T02:19:11.986Z,22
2023-04-29T02:20:27.191Z,21.9
2023-04-29T02:21:43.321Z,21.9
2023-04-29T02:22:59.461Z,21.9
2023-04-29T02:24:15.591Z,22
2023-04-29T02:25:31.737Z,21.9
2023-04-29T02:26:47.872Z,21.9
2023-04-29T02:28:04.002Z,22
2023-04-29T02:29:20.140Z,22
2023-04-29T02:30:36.278Z,22
2023-04-29T02:31:52.415Z,22
2023-04-29T02:33:08.534Z,22
2023-04-29T02:34:24.691Z,22
2023-04-29T02:35:40.833Z,22
2023-04-29T02:36:56.951Z,22
2023-04-29T02:38:13.096Z,22
2023-04-29T02:39:29.227Z,22
2023-04-29T02:40:45.382Z,21.9
2023-04-29T02:42:01.513Z,22
2023-04-29T02:43:17.634Z,21.9
2023-04-29T02:44:33.765Z,22
2023-04-29T02:45:49.898Z,21.9
2023-04-29T02:47:06.064Z,21.9
2023-04-29T02:48:22.183Z,22
2023-04-29T02:49:38.317Z,22
2023-04-29T02:50:54.450Z,21.9
2023-04-29T02:52:10.653Z,21.9
2023-04-29T02:53:25.877Z,21.9
2023-04-29T02:54:41.087Z,22
2023-04-29T02:55:56.247Z,21.9
2023-04-29T02:57:12.384Z,21.9
2023-04-29T02:58:28.520Z,21.9
2023-04-29T02:59:44.638Z,21.9
2023-04-29T03:01:00.772Z,21.9
2023-04-29T03:02:16.927Z,21.9
2023-04-29T03:03:33.065Z,21.9
2023-04-29T03:04:49.184Z,21.9
2023-04-29T03:06:05.000Z,21.9
2023-04-29T03:07:21.451Z,21.9
2023-04-29T03:08:37.606Z,21.9
2023-04-29T03:09:53.733Z,21.9
2023-04-29T03:11:09.865Z,21.9
2023-04-29T03:12:25.999Z,21.9
2023-04-29T03:13:42.135Z,21.9
2023-04-29T03:14:58.278Z,21.9
2023-04-29T03:16:14.429Z,21.9
2023-04-29T03:17:30.545Z,21.9
2023-04-29T03:18:46.695Z,21.9
2023-04-29T03:20:02.815Z,21.9
2023-04-29T03:21:18.966Z,21.9
2023-04-29T03:22:35.101Z,21.9
2023-04-29T03:23:51.237Z,21.9
2023-04-29T03:25:07.367Z,21.9
2023-04-29T03:26:23.500Z,21.9
2023-04-29T03:27:39.645Z,21.9
2023-04-29T03:28:55.782Z,21.9
2023-04-29T03:30:11.918Z,21.9
2023-04-29T03:31:28.057Z,21.9
2023-04-29T03:32:44.189Z,21.9
2023-04-29T03:34:00.328Z,21.9
2023-04-29T03:35:16.470Z,21.9
2023-04-29T03:36:32.588Z,21.9
2023-04-29T03:37:48.723Z,21.9
2023-04-29T03:39:04.860Z,21.9
2023-04-29T03:40:21.012Z,21.9
2023-04-29T03:41:37.296Z,21.9
2023-04-29T03:42:53.425Z,21.9
2023-04-29T03:44:09.564Z,21.9
2023-04-29T03:45:25.686Z,21.9
2023-04-29T03:46:41.843Z,21.9
2023-04-29T03:47:57.978Z,21.9
2023-04-29T03:49:14.097Z,21.9
2023-04-29T03:50:30.242Z,21.9
2023-04-29T03:51:46.367Z,21.9
2023-04-29T03:53:02.524Z,21.9
2023-04-29T03:54:18.663Z,21.9
2023-04-29T03:55:34.784Z,21.9
2023-04-29T03:56:50.930Z,21.9
2023-04-29T03:58:07.046Z,21.9
2023-04-29T03:59:23.210Z,21.9
2023-04-29T04:01:55.472Z,21.9
2023-04-29T04:03:11.735Z,21.9
2023-04-29T04:04:27.851Z,21.9
2023-04-29T04:05:44.009Z,21.9
2023-04-29T04:07:00.135Z,21.9
2023-04-29T04:08:16.281Z,21.9
2023-04-29T04:09:32.412Z,21.9
2023-04-29T04:10:48.531Z,21.9
2023-04-29T04:12:04.697Z,21.9
2023-04-29T04:13:20.813Z,21.9
2023-04-29T04:14:36.952Z,21.9
2023-04-29T04:15:53.083Z,21.9
2023-04-29T04:17:09.218Z,21.9
2023-04-29T04:18:25.366Z,21.9
2023-04-29T04:19:41.502Z,21.9
2023-04-29T04:20:57.643Z,21.9
2023-04-29T04:22:13.766Z,21.9
2023-04-29T04:23:29.908Z,21.9
2023-04-29T04:24:46.049Z,21.9
2023-04-29T04:26:02.173Z,21.9
2023-04-29T04:27:18.325Z,21.9
2023-04-29T04:28:34.454Z,21.9
2023-04-29T04:29:50.586Z,21.9
2023-04-29T04:31:06.728Z,21.9
2023-04-29T04:32:22.857Z,21.9
2023-04-29T04:33:39.002Z,21.9
2023-04-29T04:34:55.124Z,21.9
2023-04-29T04:36:11.269Z,21.9
2023-04-29T04:37:27.409Z,21.9
2023-04-29T04:38:43.544Z,21.9
2023-04-29T04:39:59.674Z,21.9
2023-04-29T04:41:15.814Z,21.9
2023-04-29T04:42:31.947Z,21.8
2023-04-29T04:43:48.091Z,21.9
2023-04-29T04:45:04.219Z,21.9
2023-04-29T04:46:20.350Z,21.8
2023-04-29T04:47:36.486Z,21.9
2023-04-29T04:48:52.624Z,21.8
2023-04-29T04:50:08.830Z,21.8
2023-04-29T04:51:24.070Z,21.8
2023-04-29T04:52:39.284Z,21.8
2023-04-29T04:53:55.427Z,21.8
2023-04-29T04:55:11.561Z,21.8
2023-04-29T04:56:27.683Z,21.8
2023-04-29T04:57:43.816Z,21.9
2023-04-29T04:58:59.952Z,21.9
2023-04-29T05:00:16.097Z,21.9
2023-04-29T05:01:32.227Z,21.9
2023-04-29T05:02:48.377Z,21.9
2023-04-29T05:04:04.497Z,21.9
2023-04-29T05:05:20.635Z,21.9
2023-04-29T05:06:36.783Z,21.9
2023-04-29T05:07:52.918Z,21.9
2023-04-29T05:09:09.056Z,21.9
2023-04-29T05:10:25.189Z,21.9
2023-04-29T05:11:41.322Z,21.9
2023-04-29T05:12:57.467Z,21.9
2023-04-29T05:14:13.590Z,21.9
2023-04-29T05:15:29.722Z,21.9
2023-04-29T05:16:45.857Z,21.9
2023-04-29T05:18:01.995Z,21.9
2023-04-29T05:20:34.287Z,21.9
2023-04-29T05:21:50.420Z,21.9
2023-04-29T05:23:06.543Z,21.9
2023-04-29T05:24:22.735Z,21.9
2023-04-29T05:25:37.985Z,21.9
2023-04-29T05:26:53.173Z,21.9
2023-04-29T05:28:09.312Z,21.9
2023-04-29T05:29:25.464Z,21.8
2023-04-29T05:30:41.605Z,21.8
2023-04-29T05:31:57.725Z,21.8
2023-04-29T05:33:13.867Z,21.8
2023-04-29T05:34:29.998Z,21.9
2023-04-29T05:35:46.150Z,21.9
2023-04-29T05:37:02.276Z,21.9
2023-04-29T05:38:18.403Z,21.8
2023-04-29T05:39:34.549Z,21.9
2023-04-29T05:40:50.674Z,21.8
2023-04-29T05:42:06.818Z,21.9
2023-04-29T05:43:22.960Z,21.9
2023-04-29T05:44:39.096Z,21.9
2023-04-29T05:45:55.223Z,21.9
2023-04-29T05:47:11.367Z,21.9
2023-04-29T05:48:27.498Z,21.9
2023-04-29T05:49:43.638Z,21.9
2023-04-29T05:50:59.774Z,21.9
2023-04-29T05:52:15.902Z,21.9
2023-04-29T05:53:32.045Z,21.9
2023-04-29T05:54:48.187Z,21.9
2023-04-29T05:56:04.322Z,21.9
2023-04-29T05:57:20.443Z,21.9
2023-04-29T05:58:36.642Z,21.9
2023-04-29T05:59:51.875Z,21.9
2023-04-29T06:01:07.100Z,21.9
2023-04-29T06:02:22.239Z,21.9
2023-04-29T06:03:38.392Z,21.9
2023-04-29T06:04:54.514Z,21.9
2023-04-29T06:06:10.664Z,21.9
2023-04-29T06:07:26.789Z,21.9
2023-04-29T06:08:42.930Z,21.9
2023-04-29T06:09:59.065Z,21.9
2023-04-29T06:11:15.204Z,21.9
2023-04-29T06:12:31.327Z,21.9
2023-04-29T06:13:47.475Z,21.9
2023-04-29T06:15:03.610Z,21.9
2023-04-29T06:16:19.749Z,21.9
2023-04-29T06:17:35.887Z,21.9
2023-04-29T06:18:52.011Z,21.9
2023-04-29T06:20:08.159Z,21.9
2023-04-29T06:21:24.290Z,21.9
2023-04-29T06:22:40.439Z,21.9
2023-04-29T06:23:56.568Z,21.9
2023-04-29T06:25:12.696Z,22
2023-04-29T06:26:28.837Z,22
2023-04-29T06:29:01.112Z,21.9
2023-04-29T06:30:17.248Z,22
2023-04-29T06:31:33.372Z,21.9
2023-04-29T06:32:49.521Z,22
2023-04-29T06:34:05.634Z,22
2023-04-29T06:35:21.790Z,22
2023-04-29T06:36:37.932Z,22
2023-04-29T06:37:54.061Z,21.9
2023-04-29T06:39:10.191Z,21.9
2023-04-29T06:40:26.320Z,21.9
2023-04-29T06:41:42.467Z,21.9
2023-04-29T06:42:58.611Z,21.9
2023-04-29T06:44:14.729Z,21.9
2023-04-29T06:45:30.865Z,21.9
2023-04-29T06:46:47.006Z,21.9
2023-04-29T06:48:03.150Z,22
2023-04-29T06:49:19.340Z,22
2023-04-29T06:50:34.613Z,22
2023-04-29T06:51:49.815Z,22
2023-04-29T06:53:05.939Z,22
2023-04-29T06:55:38.204Z,22
2023-04-29T06:56:54.343Z,22
2023-04-29T06:58:10.496Z,22
2023-04-29T06:59:26.618Z,21.9
2023-04-29T07:00:42.756Z,21.9
2023-04-29T07:01:58.894Z,21.9
2023-04-29T07:03:15.014Z,22
2023-04-29T07:04:31.182Z,22
2023-04-29T07:05:47.311Z,22
2023-04-29T07:07:03.430Z,22
2023-04-29T07:08:19.563Z,22
2023-04-29T07:09:35.712Z,22.1
2023-04-29T07:10:51.857Z,22.1
2023-04-29T07:12:07.992Z,22.1
2023-04-29T07:13:24.121Z,22.1
2023-04-29T07:14:40.241Z,22.1
2023-04-29T07:15:56.394Z,22.1
2023-04-29T07:17:12.531Z,22.1
2023-04-29T07:18:28.658Z,22.1
2023-04-29T07:19:44.791Z,22.1
2023-04-29T07:21:00.929Z,22.1
2023-04-29T07:22:17.219Z,22.1
2023-04-29T07:23:33.357Z,22.1
2023-04-29T07:24:49.497Z,22.1
2023-04-29T07:26:05.615Z,22.1
2023-04-29T07:27:21.747Z,22
2023-04-29T07:28:37.878Z,22
2023-04-29T07:29:54.032Z,22
2023-04-29T07:31:10.177Z,22
2023-04-29T07:32:26.308Z,22
2023-04-29T07:33:42.432Z,22
2023-04-29T07:34:58.571Z,22
2023-04-29T07:36:14.707Z,22
2023-04-29T07:37:30.852Z,22
2023-04-29T07:38:46.990Z,22
2023-04-29T07:40:03.108Z,22
2023-04-29T07:41:19.244Z,22
2023-04-29T07:42:35.388Z,22
2023-04-29T07:43:51.533Z,22
2023-04-29T07:45:07.659Z,22
2023-04-29T07:46:23.785Z,22
2023-04-29T07:47:39.937Z,22
2023-04-29T07:48:56.083Z,22
2023-04-29T07:50:12.207Z,22.1
2023-04-29T07:51:28.341Z,22.1
2023-04-29T07:52:44.477Z,22.2
2023-04-29T07:54:00.662Z,22.3
2023-04-29T07:55:15.909Z,22.6
2023-04-29T07:56:31.107Z,22.6
2023-04-29T07:57:47.239Z,22.6
2023-04-29T07:59:03.400Z,22.6
2023-04-29T08:00:19.517Z,22.6
2023-04-29T08:01:35.654Z,22.6
2023-04-29T08:02:51.803Z,22.6
2023-04-29T08:04:07.926Z,22.6
2023-04-29T08:05:24.077Z,22.6
2023-04-29T08:06:40.216Z,22.7
2023-04-29T08:07:56.337Z,22.7
2023-04-29T08:09:12.479Z,22.8
2023-04-29T08:10:28.600Z,22.9
2023-04-29T08:11:44.750Z,22.9
2023-04-29T08:13:00.887Z,22.9
2023-04-29T08:14:17.023Z,22.9
2023-04-29T08:15:33.161Z,22.9
2023-04-29T08:16:49.283Z,22.8
2023-04-29T08:18:05.440Z,22.8
2023-04-29T08:19:21.573Z,22.8
2023-04-29T08:20:37.707Z,22.8
2023-04-29T08:21:53.830Z,22.8
2023-04-29T08:23:09.979Z,22.8
2023-04-29T08:24:26.114Z,22.8
2023-04-29T08:25:42.244Z,22.8
2023-04-29T08:26:58.383Z,22.8
2023-04-29T08:28:14.572Z,22.8
2023-04-29T08:29:29.818Z,22.8
2023-04-29T08:30:45.026Z,22.7
2023-04-29T08:32:00.182Z,22.7
2023-04-29T08:33:16.320Z,22.7
2023-04-29T08:34:32.445Z,22.7
2023-04-29T08:35:48.583Z,22.7
2023-04-29T08:37:04.729Z,22.7
2023-04-29T08:38:20.856Z,22.7
2023-04-29T08:39:36.998Z,22.7
2023-04-29T08:40:53.131Z,22.8
2023-04-29T08:42:09.276Z,22.8
2023-04-29T08:43:25.403Z,22.8
2023-04-29T08:44:41.545Z,22.8
2023-04-29T08:45:57.685Z,22.8
2023-04-29T08:47:13.810Z,22.8
2023-04-29T08:48:29.942Z,22.9
2023-04-29T08:49:46.083Z,23
2023-04-29T08:51:02.210Z,23
2023-04-29T08:52:18.357Z,23.1
2023-04-29T08:53:34.505Z,23.1
2023-04-29T08:54:50.622Z,23.1
2023-04-29T08:56:06.766Z,23.1
2023-04-29T08:57:22.894Z,23
2023-04-29T08:58:39.042Z,23
2023-04-29T08:59:55.188Z,23
2023-04-29T09:01:11.317Z,23
2023-04-29T09:02:27.448Z,23
2023-04-29T09:03:43.586Z,22.9
2023-04-29T09:04:59.736Z,22.9
2023-04-29T09:06:15.858Z,22.9
2023-04-29T09:07:31.986Z,22.8
2023-04-29T09:08:48.132Z,22.8
2023-04-29T09:10:04.268Z,22.8
2023-04-29T09:11:20.409Z,22.9
2023-04-29T09:12:36.536Z,22.9
2023-04-29T09:13:52.673Z,23
2023-04-29T09:15:08.810Z,23
2023-04-29T09:16:24.938Z,23.1
2023-04-29T09:17:41.082Z,23.2
2023-04-29T09:18:57.276Z,23.2
2023-04-29T09:20:12.523Z,23.2
2023-04-29T09:21:27.723Z,23.2
2023-04-29T09:22:43.867Z,23.3
2023-04-29T09:24:00.001Z,23.3
2023-04-29T09:25:16.121Z,23.3
2023-04-29T09:26:32.270Z,23.3
2023-04-29T09:27:48.404Z,23.2
2023-04-29T09:29:04.549Z,23.2
2023-04-29T09:30:20.667Z,23.1
2023-04-29T09:31:36.813Z,23.1
2023-04-29T09:32:52.943Z,23.1
2023-04-29T09:34:09.085Z,23.1
2023-04-29T09:35:25.228Z,23
2023-04-29T09:36:41.362Z,23
2023-04-29T09:37:57.487Z,23.1
2023-04-29T09:39:13.627Z,23
2023-04-29T09:40:29.766Z,23.1
2023-04-29T09:41:45.906Z,23.1
2023-04-29T09:43:02.040Z,23
2023-04-29T09:44:18.181Z,23
2023-04-29T09:45:34.300Z,23.1
2023-04-29T09:46:50.462Z,23.1
2023-04-29T09:48:06.581Z,23.1
2023-04-29T09:49:22.728Z,23.1
2023-04-29T09:50:38.849Z,23.2
2023-04-29T09:51:54.994Z,23.2
2023-04-29T09:53:11.187Z,23.2
2023-04-29T09:54:26.428Z,23.3
2023-04-29T09:55:42.628Z,23.4
2023-04-29T09:56:57.832Z,23.4
2023-04-29T09:58:13.968Z,23.3
2023-04-29T09:59:30.097Z,23.3
2023-04-29T10:00:46.238Z,23.3
2023-04-29T10:02:02.359Z,23.3
2023-04-29T10:03:18.502Z,23.3
2023-04-29T10:04:34.641Z,23.4
2023-04-29T10:05:50.775Z,23.5
2023-04-29T10:07:06.910Z,23.6
2023-04-29T10:08:23.038Z,23.7
2023-04-29T10:09:39.184Z,23.9
2023-04-29T10:10:55.326Z,24
2023-04-29T10:12:11.453Z,24
2023-04-29T10:13:27.595Z,24.2
2023-04-29T10:14:43.718Z,24.4
2023-04-29T10:15:59.867Z,24.5
2023-04-29T10:17:16.010Z,24.7
2023-04-29T10:18:32.134Z,24.9
2023-04-29T10:19:48.269Z,25.1
2023-04-29T10:21:04.414Z,25.3
2023-04-29T10:22:20.550Z,25.3
2023-04-29T10:23:36.698Z,25.2
2023-04-29T10:24:52.815Z,25.1
2023-04-29T10:26:08.961Z,25.2
2023-04-29T10:27:25.092Z,25.3
2023-04-29T10:28:41.302Z,25.1
2023-04-29T10:29:56.531Z,25
2023-04-29T10:31:11.751Z,24.9
2023-04-29T10:32:27.879Z,24.8
2023-04-29T10:33:44.019Z,24.7
2023-04-29T10:35:00.160Z,24.6
2023-04-29T10:36:16.282Z,24.7
2023-04-29T10:37:32.537Z,24.6
2023-04-29T10:38:48.688Z,24.5
2023-04-29T10:40:04.817Z,24.4
2023-04-29T10:41:20.956Z,24.3
2023-04-29T10:42:37.081Z,24.5
2023-04-29T10:43:53.222Z,24.9
2023-04-29T10:45:09.371Z,25.8
2023-04-29T10:46:25.502Z,26.2
2023-04-29T10:47:41.641Z,27.2
2023-04-29T10:48:57.765Z,27.5
2023-04-29T10:50:13.915Z,27.3
2023-04-29T10:51:30.053Z,26.9
2023-04-29T10:52:46.178Z,26.6
2023-04-29T10:54:02.318Z,26.2
2023-04-29T10:55:18.444Z,25.9
2023-04-29T10:56:34.581Z,25.6
2023-04-29T10:57:50.731Z,25.5
2023-04-29T10:59:06.874Z,25.3
2023-04-29T11:00:22.993Z,25.8
2023-04-29T11:01:39.137Z,26.1
2023-04-29T11:02:55.274Z,26.8
2023-04-29T11:04:11.410Z,27.5
2023-04-29T11:05:27.541Z,28
2023-04-29T11:06:43.691Z,28
2023-04-29T11:07:59.823Z,27.8
2023-04-29T11:09:15.949Z,27.4
2023-04-29T11:10:32.108Z,27
2023-04-29T11:11:48.239Z,26.6
2023-04-29T11:13:04.363Z,26.3
2023-04-29T11:14:20.500Z,26
2023-04-29T11:15:36.629Z,25.8
2023-04-29T11:16:52.779Z,25.7
2023-04-29T11:18:08.916Z,25.8
2023-04-29T11:19:25.045Z,25.7
2023-04-29T11:21:57.322Z,25.5
2023-04-29T11:23:13.472Z,25.5
2023-04-29T11:24:29.653Z,25.5
2023-04-29T11:25:44.872Z,25.5
2023-04-29T11:27:00.008Z,25.8
2023-04-29T11:28:16.147Z,25.8
2023-04-29T11:29:32.275Z,25.8
2023-04-29T11:30:48.415Z,25.9
2023-04-29T11:32:04.555Z,25.9
2023-04-29T11:33:20.705Z,25.8
2023-04-29T11:34:36.832Z,25.7
2023-04-29T11:35:52.954Z,25.6
2023-04-29T11:37:09.106Z,25.5
2023-04-29T11:38:25.235Z,25.4
2023-04-29T11:39:41.377Z,25.2
2023-04-29T11:40:57.510Z,25.1
2023-04-29T11:42:13.646Z,25
2023-04-29T11:43:29.785Z,25
2023-04-29T11:44:45.918Z,24.9
2023-04-29T11:46:02.062Z,24.9
2023-04-29T11:47:18.191Z,24.9
2023-04-29T11:48:34.336Z,24.8
2023-04-29T11:49:50.483Z,24.8
2023-04-29T11:51:06.595Z,24.7
2023-04-29T11:52:22.738Z,24.7
2023-04-29T11:53:38.884Z,24.7
2023-04-29T11:54:55.005Z,24.6
2023-04-29T11:56:11.141Z,24.6
2023-04-29T11:57:27.275Z,24.6
2023-04-29T11:58:43.435Z,24.6
2023-04-29T11:59:59.559Z,24.6
2023-04-29T12:01:15.687Z,24.6
2023-04-29T12:02:31.833Z,24.6
2023-04-29T12:03:47.966Z,24.6
2023-04-29T12:05:04.102Z,24.6
2023-04-29T12:06:20.242Z,24.6
2023-04-29T12:07:36.366Z,24.6
2023-04-29T12:08:52.507Z,24.6
2023-04-29T12:10:08.643Z,24.6
2023-04-29T12:11:24.787Z,24.7
2023-04-29T12:12:40.928Z,24.7
2023-04-29T12:13:57.114Z,24.8
2023-04-29T12:15:12.325Z,24.8
2023-04-29T12:16:28.469Z,24.8
2023-04-29T12:17:44.600Z,24.7
2023-04-29T12:19:00.723Z,24.6
2023-04-29T12:20:16.866Z,24.6
2023-04-29T12:21:32.991Z,24.5
2023-04-29T12:22:49.152Z,24.4
2023-04-29T12:24:05.271Z,24.4
2023-04-29T12:25:21.411Z,24.3
2023-04-29T12:26:37.552Z,24.3
2023-04-29T12:27:53.672Z,24.3
2023-04-29T12:29:09.822Z,24.2
2023-04-29T12:30:25.963Z,24.2
2023-04-29T12:31:42.093Z,24.2
2023-04-29T12:32:58.225Z,24.2
2023-04-29T12:34:14.368Z,24.3
2023-04-29T12:35:30.509Z,24.3
2023-04-29T12:36:46.648Z,24.3
2023-04-29T12:38:02.772Z,24.3
2023-04-29T12:39:18.915Z,24.2
2023-04-29T12:40:35.039Z,24.2
2023-04-29T12:41:51.199Z,24.2
2023-04-29T12:43:07.327Z,24.1
2023-04-29T12:44:23.456Z,24.1
2023-04-29T12:45:39.600Z,24
2023-04-29T12:46:55.792Z,24
2023-04-29T12:48:10.998Z,23.9
2023-04-29T12:49:27.122Z,23.9
2023-04-29T12:50:43.261Z,23.9
2023-04-29T12:51:59.505Z,24
2023-04-29T12:53:15.661Z,24
2023-04-29T12:54:31.792Z,24
2023-04-29T12:55:47.932Z,24.1
2023-04-29T12:57:04.066Z,24
2023-04-29T12:58:20.186Z,24
2023-04-29T12:59:36.342Z,24.1
2023-04-29T13:00:52.481Z,24.1
2023-04-29T13:02:08.609Z,24.1
2023-04-29T13:03:24.744Z,24.1
2023-04-29T13:04:40.881Z,24.1
2023-04-29T13:05:57.015Z,24
2023-04-29T13:07:13.143Z,24
2023-04-29T13:08:29.283Z,24
2023-04-29T13:09:45.424Z,23.9
2023-04-29T13:11:01.554Z,23.9
2023-04-29T13:12:17.707Z,23.8
2023-04-29T13:13:33.840Z,23.8
2023-04-29T13:14:49.975Z,23.7
2023-04-29T13:16:06.100Z,23.7
2023-04-29T13:17:22.237Z,23.6
2023-04-29T13:18:38.387Z,23.6
2023-04-29T13:19:54.508Z,23.6
2023-04-29T13:21:10.644Z,23.6
2023-04-29T13:22:26.780Z,23.6
2023-04-29T13:23:42.907Z,23.5
2023-04-29T13:24:59.058Z,23.5
2023-04-29T13:26:15.196Z,23.5
2023-04-29T13:27:31.322Z,23.5
2023-04-29T13:28:47.466Z,23.5
2023-04-29T13:30:03.598Z,23.5
2023-04-29T13:31:19.745Z,23.5
2023-04-29T13:32:35.881Z,23.6
2023-04-29T13:33:52.021Z,23.6
2023-04-29T13:35:08.147Z,23.6
2023-04-29T13:36:24.290Z,23.7
2023-04-29T13:37:40.419Z,23.7
2023-04-29T13:38:56.618Z,23.7
2023-04-29T13:40:11.832Z,23.7
2023-04-29T13:41:27.954Z,23.7
2023-04-29T13:42:44.118Z,23.7
2023-04-29T13:44:00.241Z,23.7
2023-04-29T13:45:16.369Z,23.7
2023-04-29T13:46:32.503Z,23.7
2023-04-29T13:47:48.648Z,23.7
2023-04-29T13:49:04.796Z,23.6
2023-04-29T13:50:20.926Z,23.6
2023-04-29T13:51:37.067Z,23.6
2023-04-29T13:52:53.197Z,23.7
2023-04-29T13:54:09.317Z,23.7
2023-04-29T13:55:25.476Z,23.7
2023-04-29T13:56:41.607Z,23.7
2023-04-29T13:57:57.742Z,23.7
2023-04-29T13:59:13.865Z,23.7
2023-04-29T14:00:30.005Z,23.7
2023-04-29T14:01:46.164Z,23.7
2023-04-29T14:03:02.000Z,23.7
2023-04-29T14:04:18.420Z,23.7
2023-04-29T14:05:34.557Z,23.8
2023-04-29T14:06:50.685Z,23.7
2023-04-29T14:08:06.841Z,23.7
2023-04-29T14:09:22.968Z,23.7
2023-04-29T14:10:39.103Z,23.7
2023-04-29T14:11:55.000Z,23.7
2023-04-29T14:13:10.547Z,23.6
2023-04-29T14:14:25.749Z,23.6
2023-04-29T14:15:40.904Z,23.6
2023-04-29T14:16:57.041Z,23.5
2023-04-29T14:18:13.178Z,23.5
2023-04-29T14:19:29.313Z,23.5
2023-04-29T14:20:45.443Z,23.4
2023-04-29T14:22:01.568Z,23.4
2023-04-29T14:23:17.726Z,23.4
2023-04-29T14:24:33.857Z,23.4
2023-04-29T14:25:49.996Z,23.4
2023-04-29T14:27:06.129Z,23.4
2023-04-29T14:28:22.266Z,23.4
2023-04-29T14:29:38.412Z,23.4
2023-04-29T14:30:54.541Z,23.4
2023-04-29T14:32:10.679Z,23.4
2023-04-29T14:33:26.808Z,23.4
2023-04-29T14:34:42.951Z,23.4
2023-04-29T14:35:59.086Z,23.4
2023-04-29T14:37:15.225Z,23.4
2023-04-29T14:38:31.353Z,23.4
2023-04-29T14:39:47.498Z,23.4
2023-04-29T14:41:03.629Z,23.4
2023-04-29T14:42:19.770Z,23.4
2023-04-29T14:43:35.899Z,23.4
2023-04-29T14:44:52.036Z,23.3
2023-04-29T14:46:08.172Z,23.3
2023-04-29T14:47:24.309Z,23.3
2023-04-29T14:48:40.458Z,23.3
2023-04-29T14:49:56.596Z,23.2
2023-04-29T14:51:12.728Z,23.2
2023-04-29T14:52:28.852Z,23.2
2023-04-29T14:53:44.994Z,23.2
2023-04-29T14:55:01.139Z,23.2
2023-04-29T14:56:17.263Z,23.2
2023-04-29T14:57:33.395Z,23.1
2023-04-29T14:58:49.545Z,23.2
2023-04-29T15:00:05.664Z,23.1
2023-04-29T15:01:21.808Z,23.2
2023-04-29T15:02:38.007Z,23.2
2023-04-29T15:03:53.252Z,23.2
2023-04-29T15:05:08.451Z,23.2
2023-04-29T15:06:24.588Z,23.2
2023-04-29T15:07:40.721Z,23.2
2023-04-29T15:08:56.861Z,23.2
2023-04-29T15:10:12.981Z,23.3
2023-04-29T15:11:29.127Z,23.3
2023-04-29T15:12:45.279Z,23.3
2023-04-29T15:14:01.402Z,23.3
2023-04-29T15:15:17.529Z,23.3
2023-04-29T15:16:33.672Z,23.3
2023-04-29T15:17:49.828Z,23.4
2023-04-29T15:19:05.946Z,23.4
2023-04-29T15:20:22.080Z,23.4
2023-04-29T15:21:38.226Z,23.4
2023-04-29T15:22:54.342Z,23.4
2023-04-29T15:24:10.498Z,23.4
2023-04-29T15:25:26.623Z,23.3
2023-04-29T15:26:42.772Z,23.3
2023-04-29T15:27:58.899Z,23.3
2023-04-29T15:29:15.028Z,23.3
2023-04-29T15:30:31.188Z,23.2
2023-04-29T15:31:47.309Z,23.2
2023-04-29T15:33:03.451Z,23.2
2023-04-29T15:34:19.576Z,23.2
2023-04-29T15:35:35.709Z,23.1
2023-04-29T15:36:51.930Z,23.1
2023-04-29T15:38:07.163Z,23.1
2023-04-29T15:39:23.343Z,23
2023-04-29T15:40:38.560Z,23
2023-04-29T15:41:54.697Z,23
2023-04-29T15:43:10.828Z,23
2023-04-29T15:44:26.973Z,23
2023-04-29T15:45:43.099Z,23
2023-04-29T15:46:59.243Z,23
2023-04-29T15:48:15.387Z,23
2023-04-29T15:49:31.508Z,23
2023-04-29T15:50:47.647Z,23
2023-04-29T15:52:03.771Z,23
2023-04-29T15:53:19.924Z,23
2023-04-29T15:54:36.054Z,23
2023-04-29T15:55:52.197Z,23
2023-04-29T15:57:08.331Z,23
2023-04-29T15:58:24.465Z,23
2023-04-29T15:59:40.597Z,23
2023-04-29T16:00:56.742Z,23
2023-04-29T16:02:12.873Z,23
2023-04-29T16:03:28.999Z,23
2023-04-29T16:04:45.136Z,23
2023-04-29T16:06:01.278Z,23
2023-04-29T16:07:17.423Z,23
2023-04-29T16:08:33.544Z,23
2023-04-29T16:09:49.682Z,23.1
2023-04-29T16:11:05.818Z,23
2023-04-29T16:12:22.034Z,23
2023-04-29T16:13:37.256Z,23
2023-04-29T16:14:52.479Z,23
2023-04-29T16:16:08.613Z,23
2023-04-29T16:17:24.744Z,23
2023-04-29T16:18:40.887Z,23
2023-04-29T16:19:57.006Z,23
2023-04-29T16:21:13.156Z,23
2023-04-29T16:22:29.306Z,23
2023-04-29T16:23:45.431Z,23
2023-04-29T16:25:01.567Z,23
2023-04-29T16:26:17.703Z,23
2023-04-29T16:27:33.837Z,23
2023-04-29T16:28:49.975Z,23
2023-04-29T16:30:06.119Z,23
2023-04-29T16:31:22.242Z,23
2023-04-29T16:32:38.367Z,23
2023-04-29T16:33:54.514Z,23
2023-04-29T16:35:10.661Z,23
2023-04-29T16:36:26.782Z,23
2023-04-29T16:37:42.915Z,23
2023-04-29T16:38:59.052Z,23
2023-04-29T16:40:15.182Z,23
2023-04-29T16:41:31.347Z,23
2023-04-29T16:42:47.464Z,23
2023-04-29T16:44:03.606Z,22.9
2023-04-29T16:45:19.739Z,23
2023-04-29T16:46:35.922Z,22.9
2023-04-29T16:47:51.176Z,22.9
2023-04-29T16:49:06.387Z,22.9
2023-04-29T16:50:22.518Z,22.9
2023-04-29T16:51:38.662Z,22.9
2023-04-29T16:52:54.789Z,22.9
2023-04-29T16:54:10.918Z,22.9
2023-04-29T16:55:27.053Z,22.9
2023-04-29T16:56:43.188Z,22.9
2023-04-29T16:57:59.336Z,22.9
2023-04-29T16:59:15.471Z,22.8
2023-04-29T17:00:31.606Z,22.8
2023-04-29T17:01:47.732Z,22.8
2023-04-29T17:03:03.865Z,22.8
2023-04-29T17:04:20.025Z,22.8
2023-04-29T17:05:36.147Z,22.8
2023-04-29T17:06:52.291Z,22.8
2023-04-29T17:08:08.416Z,22.8
2023-04-29T17:10:40.698Z,22.8
2023-04-29T17:11:56.839Z,22.8
2023-04-29T17:13:12.970Z,22.7
2023-04-29T17:14:29.092Z,22.8
2023-04-29T17:15:45.230Z,22.7
2023-04-29T17:17:01.392Z,22.7